sensor_id;sensor_type;location;lat;lon;timestamp;pressure;altitude;pressure_sealevel;temperature;humidity
64683;BME280;51107;47.652;19.016;2023-05-20T00:01:00;100372.59;;;13.53;100.00
64683;BME280;51107;47.652;19.016;2023-05-20T00:03:29;100371.28;;;13.49;100.00
64683;BME280;51107;47.652;19.016;2023-05-20T00:05:57;100373.56;;;13.52;100.00
64683;BME280;51107;47.652;19.016;2023-05-20T00:08:26;100362.56;;;13.48;100.00
64683;BME280;51107;47.652;19.016;2023-05-20T00:10:54;100372.06;;;13.49;100.00
64683;BME280;51107;47.652;19.016;2023-05-20T00:13:22;100362.75;;;13.47;100.00
64683;BME280;51107;47.652;19.016;2023-05-20T00:15:51;100368.66;;;13.49;100.00
64683;BME280;51107;47.652;19.016;2023-05-20T00:18:20;100346.19;;;13.38;100.00
64683;BME280;51107;47.652;19.016;2023-05-20T00:20:49;100355.66;;;13.21;100.00
64683;BME280;51107;47.652;19.016;2023-05-20T00:23:17;100349.84;;;13.27;100.00
64683;BME280;51107;47.652;19.016;2023-05-20T00:25:45;100345.06;;;13.22;100.00
64683;BME280;51107;47.652;19.016;2023-05-20T00:28:14;100341.87;;;13.11;100.00
64683;BME280;51107;47.652;19.016;2023-05-20T00:30:42;100346.00;;;13.13;100.00
64683;BME280;51107;47.652;19.016;2023-05-20T00:33:11;100337.78;;;13.08;100.00
64683;BME280;51107;47.652;19.016;2023-05-20T00:35:42;100330.56;;;13.02;100.00
64683;BME280;51107;47.652;19.016;2023-05-20T00:38:11;100328.91;;;13.01;100.00
64683;BME280;51107;47.652;19.016;2023-05-20T00:40:39;100332.47;;;13.00;100.00
64683;BME280;51107;47.652;19.016;2023-05-20T00:43:08;100332.84;;;13.05;100.00
64683;BME280;51107;47.652;19.016;2023-05-20T00:45:37;100337.34;;;13.13;100.00
64683;BME280;51107;47.652;19.016;2023-05-20T00:48:06;100335.06;;;13.18;100.00
64683;BME280;51107;47.652;19.016;2023-05-20T00:50:34;100333.66;;;13.32;100.00
64683;BME280;51107;47.652;19.016;2023-05-20T00:53:03;100334.34;;;13.34;100.00
64683;BME280;51107;47.652;19.016;2023-05-20T00:55:33;100331.38;;;13.29;100.00
64683;BME280;51107;47.652;19.016;2023-05-20T00:58:04;100341.66;;;13.30;100.00
64683;BME280;51107;47.652;19.016;2023-05-20T01:00:33;100343.62;;;13.28;100.00
64683;BME280;51107;47.652;19.016;2023-05-20T01:03:01;100335.06;;;13.44;100.00
64683;BME280;51107;47.652;19.016;2023-05-20T01:05:30;100335.97;;;13.53;100.00
64683;BME280;51107;47.652;19.016;2023-05-20T01:07:58;100333.19;;;13.54;100.00
64683;BME280;51107;47.652;19.016;2023-05-20T01:10:27;100334.47;;;13.50;100.00
64683;BME280;51107;47.652;19.016;2023-05-20T01:13:00;100339.03;;;13.48;100.00
64683;BME280;51107;47.652;19.016;2023-05-20T01:15:32;100333.75;;;13.40;100.00
64683;BME280;51107;47.652;19.016;2023-05-20T01:18:02;100342.00;;;13.27;100.00
64683;BME280;51107;47.652;19.016;2023-05-20T01:20:34;100328.97;;;13.09;100.00
64683;BME280;51107;47.652;19.016;2023-05-20T01:23:03;100340.31;;;13.00;100.00
64683;BME280;51107;47.652;19.016;2023-05-20T01:25:31;100337.12;;;13.06;100.00
64683;BME280;51107;47.652;19.016;2023-05-20T01:27:59;100341.06;;;13.10;100.00
64683;BME280;51107;47.652;19.016;2023-05-20T01:30:34;100342.41;;;13.14;100.00
64683;BME280;51107;47.652;19.016;2023-05-20T01:33:10;100344.41;;;13.20;100.00
64683;BME280;51107;47.652;19.016;2023-05-20T01:35:40;100341.47;;;13.23;100.00
64683;BME280;51107;47.652;19.016;2023-05-20T01:38:10;100352.97;;;13.31;100.00
64683;BME280;51107;47.652;19.016;2023-05-20T01:40:40;100340.25;;;13.36;100.00
64683;BME280;51107;47.652;19.016;2023-05-20T01:43:11;100349.44;;;13.40;100.00
64683;BME280;51107;47.652;19.016;2023-05-20T01:45:43;100346.59;;;13.33;100.00
64683;BME280;51107;47.652;19.016;2023-05-20T01:48:12;100344.28;;;13.30;100.00
64683;BME280;51107;47.652;19.016;2023-05-20T01:50:41;100351.66;;;13.27;100.00
64683;BME280;51107;47.652;19.016;2023-05-20T01:53:10;100347.16;;;13.19;100.00
64683;BME280;51107;47.652;19.016;2023-05-20T01:55:38;100350.34;;;13.04;100.00
64683;BME280;51107;47.652;19.016;2023-05-20T01:58:07;100348.94;;;12.92;100.00
64683;BME280;51107;47.652;19.016;2023-05-20T02:00:36;100346.78;;;12.87;100.00
64683;BME280;51107;47.652;19.016;2023-05-20T02:03:04;100342.06;;;12.91;100.00
64683;BME280;51107;47.652;19.016;2023-05-20T02:05:35;100343.66;;;12.84;100.00
64683;BME280;51107;47.652;19.016;2023-05-20T02:08:05;100343.66;;;12.84;100.00
64683;BME280;51107;47.652;19.016;2023-05-20T02:10:33;100343.66;;;12.84;100.00
64683;BME280;51107;47.652;19.016;2023-05-20T02:13:01;100349.78;;;12.74;100.00
64683;BME280;51107;47.652;19.016;2023-05-20T02:15:30;100339.81;;;12.78;100.00
64683;BME280;51107;47.652;19.016;2023-05-20T02:17:59;100348.94;;;12.74;100.00
64683;BME280;51107;47.652;19.016;2023-05-20T02:20:27;100345.37;;;12.75;100.00
64683;BME280;51107;47.652;19.016;2023-05-20T02:22:55;100354.16;;;12.74;100.00
64683;BME280;51107;47.652;19.016;2023-05-20T02:25:24;100353.81;;;12.69;100.00
64683;BME280;51107;47.652;19.016;2023-05-20T02:27:52;100355.81;;;12.75;100.00
64683;BME280;51107;47.652;19.016;2023-05-20T02:30:21;100355.97;;;12.73;100.00
64683;BME280;51107;47.652;19.016;2023-05-20T02:32:49;100351.56;;;12.74;100.00
64683;BME280;51107;47.652;19.016;2023-05-20T02:35:18;100356.06;;;12.64;100.00
64683;BME280;51107;47.652;19.016;2023-05-20T02:37:48;100345.28;;;12.67;100.00
64683;BME280;51107;47.652;19.016;2023-05-20T02:40:16;100344.03;;;12.71;100.00
64683;BME280;51107;47.652;19.016;2023-05-20T02:42:44;100341.09;;;12.74;100.00
64683;BME280;51107;47.652;19.016;2023-05-20T02:45:14;100356.13;;;12.72;100.00
64683;BME280;51107;47.652;19.016;2023-05-20T02:47:42;100346.06;;;12.77;100.00
64683;BME280;51107;47.652;19.016;2023-05-20T02:50:10;100361.75;;;12.59;100.00
64683;BME280;51107;47.652;19.016;2023-05-20T02:52:39;100344.47;;;12.66;100.00
64683;BME280;51107;47.652;19.016;2023-05-20T02:55:10;100359.78;;;12.61;100.00
64683;BME280;51107;47.652;19.016;2023-05-20T02:57:39;100358.97;;;12.61;100.00
64683;BME280;51107;47.652;19.016;2023-05-20T03:00:08;100370.41;;;12.60;100.00
64683;BME280;51107;47.652;19.016;2023-05-20T03:02:43;100359.63;;;12.45;100.00
64683;BME280;51107;47.652;19.016;2023-05-20T03:05:12;100369.69;;;12.39;100.00
64683;BME280;51107;47.652;19.016;2023-05-20T03:07:40;100363.34;;;12.42;100.00
64683;BME280;51107;47.652;19.016;2023-05-20T03:10:09;100363.09;;;12.45;100.00
64683;BME280;51107;47.652;19.016;2023-05-20T03:12:38;100372.84;;;12.43;100.00
64683;BME280;51107;47.652;19.016;2023-05-20T03:15:06;100371.78;;;12.36;100.00
64683;BME280;51107;47.652;19.016;2023-05-20T03:17:36;100371.09;;;12.34;100.00
64683;BME280;51107;47.652;19.016;2023-05-20T03:20:05;100375.22;;;12.36;100.00
64683;BME280;51107;47.652;19.016;2023-05-20T03:22:34;100369.56;;;12.41;100.00
64683;BME280;51107;47.652;19.016;2023-05-20T03:25:04;100376.72;;;12.39;100.00
64683;BME280;51107;47.652;19.016;2023-05-20T03:27:33;100370.84;;;12.37;100.00
64683;BME280;51107;47.652;19.016;2023-05-20T03:30:02;100382.56;;;12.23;100.00
64683;BME280;51107;47.652;19.016;2023-05-20T03:32:32;100385.53;;;12.38;100.00
64683;BME280;51107;47.652;19.016;2023-05-20T03:35:00;100383.75;;;12.38;100.00
64683;BME280;51107;47.652;19.016;2023-05-20T03:37:28;100380.69;;;12.43;100.00
64683;BME280;51107;47.652;19.016;2023-05-20T03:39:57;100377.09;;;12.44;100.00
64683;BME280;51107;47.652;19.016;2023-05-20T03:42:25;100377.50;;;12.49;100.00
64683;BME280;51107;47.652;19.016;2023-05-20T03:44:54;100373.47;;;12.55;100.00
64683;BME280;51107;47.652;19.016;2023-05-20T03:47:22;100384.41;;;12.58;100.00
64683;BME280;51107;47.652;19.016;2023-05-20T03:49:51;100385.78;;;12.63;100.00
64683;BME280;51107;47.652;19.016;2023-05-20T03:52:19;100392.66;;;12.64;100.00
64683;BME280;51107;47.652;19.016;2023-05-20T03:54:48;100386.81;;;12.70;100.00
64683;BME280;51107;47.652;19.016;2023-05-20T03:57:16;100388.31;;;12.72;100.00
64683;BME280;51107;47.652;19.016;2023-05-20T03:59:45;100390.34;;;12.61;100.00
64683;BME280;51107;47.652;19.016;2023-05-20T04:02:13;100397.50;;;12.58;100.00
64683;BME280;51107;47.652;19.016;2023-05-20T04:04:42;100384.00;;;12.63;100.00
64683;BME280;51107;47.652;19.016;2023-05-20T04:07:10;100397.50;;;12.58;100.00
64683;BME280;51107;47.652;19.016;2023-05-20T04:09:39;100394.06;;;12.58;100.00
64683;BME280;51107;47.652;19.016;2023-05-20T04:12:08;100387.50;;;12.72;100.00
64683;BME280;51107;47.652;19.016;2023-05-20T04:14:36;100394.06;;;12.76;100.00
64683;BME280;51107;47.652;19.016;2023-05-20T04:17:05;100392.81;;;12.80;100.00
64683;BME280;51107;47.652;19.016;2023-05-20T04:19:34;100397.00;;;12.73;100.00
64683;BME280;51107;47.652;19.016;2023-05-20T04:22:03;100398.19;;;12.79;100.00
64683;BME280;51107;47.652;19.016;2023-05-20T04:24:31;100402.13;;;12.83;100.00
64683;BME280;51107;47.652;19.016;2023-05-20T04:27:00;100410.22;;;12.89;100.00
64683;BME280;51107;47.652;19.016;2023-05-20T04:29:29;100406.66;;;12.99;100.00
64683;BME280;51107;47.652;19.016;2023-05-20T04:31:57;100406.31;;;13.12;100.00
64683;BME280;51107;47.652;19.016;2023-05-20T04:34:29;100409.59;;;13.14;100.00
64683;BME280;51107;47.652;19.016;2023-05-20T04:36:57;100406.72;;;13.25;100.00
64683;BME280;51107;47.652;19.016;2023-05-20T04:39:28;100410.09;;;13.17;100.00
64683;BME280;51107;47.652;19.016;2023-05-20T04:41:57;100417.56;;;13.30;100.00
64683;BME280;51107;47.652;19.016;2023-05-20T04:44:25;100415.41;;;13.25;100.00
64683;BME280;51107;47.652;19.016;2023-05-20T04:46:54;100414.13;;;13.30;100.00
64683;BME280;51107;47.652;19.016;2023-05-20T04:49:24;100421.50;;;13.34;100.00
64683;BME280;51107;47.652;19.016;2023-05-20T04:51:53;100413.44;;;13.46;100.00
64683;BME280;51107;47.652;19.016;2023-05-20T04:54:22;100415.75;;;13.49;100.00
64683;BME280;51107;47.652;19.016;2023-05-20T04:56:51;100419.72;;;13.53;100.00
64683;BME280;51107;47.652;19.016;2023-05-20T04:59:20;100421.53;;;13.61;100.00
64683;BME280;51107;47.652;19.016;2023-05-20T05:01:49;100418.53;;;13.73;100.00
64683;BME280;51107;47.652;19.016;2023-05-20T05:04:17;100412.00;;;13.78;100.00
64683;BME280;51107;47.652;19.016;2023-05-20T05:06:47;100411.38;;;13.84;100.00
64683;BME280;51107;47.652;19.016;2023-05-20T05:09:16;100415.00;;;13.91;100.00
64683;BME280;51107;47.652;19.016;2023-05-20T05:11:45;100412.12;;;14.02;100.00
64683;BME280;51107;47.652;19.016;2023-05-20T05:14:13;100405.91;;;14.12;100.00
64683;BME280;51107;47.652;19.016;2023-05-20T05:16:42;100407.44;;;14.22;100.00
64683;BME280;51107;47.652;19.016;2023-05-20T05:19:10;100412.91;;;14.37;100.00
64683;BME280;51107;47.652;19.016;2023-05-20T05:21:38;100408.47;;;14.46;100.00
64683;BME280;51107;47.652;19.016;2023-05-20T05:24:07;100415.56;;;14.54;100.00
64683;BME280;51107;47.652;19.016;2023-05-20T05:26:35;100422.69;;;14.70;100.00
64683;BME280;51107;47.652;19.016;2023-05-20T05:29:04;100414.97;;;14.76;100.00
64683;BME280;51107;47.652;19.016;2023-05-20T05:31:32;100422.34;;;14.81;100.00
64683;BME280;51107;47.652;19.016;2023-05-20T05:34:00;100422.69;;;14.86;100.00
64683;BME280;51107;47.652;19.016;2023-05-20T05:36:32;100425.34;;;14.94;100.00
64683;BME280;51107;47.652;19.016;2023-05-20T05:39:01;100420.56;;;15.06;100.00
64683;BME280;51107;47.652;19.016;2023-05-20T05:41:30;100420.91;;;15.11;100.00
64683;BME280;51107;47.652;19.016;2023-05-20T05:43:59;100428.75;;;15.28;100.00
64683;BME280;51107;47.652;19.016;2023-05-20T05:46:28;100423.69;;;15.35;100.00
64683;BME280;51107;47.652;19.016;2023-05-20T05:48:56;100426.28;;;15.43;100.00
64683;BME280;51107;47.652;19.016;2023-05-20T05:51:26;100425.59;;;15.57;100.00
64683;BME280;51107;47.652;19.016;2023-05-20T05:53:57;100430.50;;;15.60;100.00
64683;BME280;51107;47.652;19.016;2023-05-20T05:56:25;100428.88;;;15.68;100.00
64683;BME280;51107;47.652;19.016;2023-05-20T05:58:53;100440.50;;;15.73;100.00
64683;BME280;51107;47.652;19.016;2023-05-20T06:01:22;100434.13;;;15.76;100.00
64683;BME280;51107;47.652;19.016;2023-05-20T06:03:50;100433.78;;;15.87;100.00
64683;BME280;51107;47.652;19.016;2023-05-20T06:06:19;100433.44;;;15.90;100.00
64683;BME280;51107;47.652;19.016;2023-05-20T06:08:48;100437.34;;;15.94;100.00
64683;BME280;51107;47.652;19.016;2023-05-20T06:11:16;100435.06;;;16.00;100.00
64683;BME280;51107;47.652;19.016;2023-05-20T06:13:45;100444.34;;;16.19;100.00
64683;BME280;51107;47.652;19.016;2023-05-20T06:16:14;100445.81;;;16.21;100.00
64683;BME280;51107;47.652;19.016;2023-05-20T06:18:44;100452.66;;;16.30;100.00
64683;BME280;51107;47.652;19.016;2023-05-20T06:21:15;100446.84;;;16.43;100.00
64683;BME280;51107;47.652;19.016;2023-05-20T06:23:44;100438.00;;;16.68;100.00
64683;BME280;51107;47.652;19.016;2023-05-20T06:26:13;100442.28;;;16.69;100.00
64683;BME280;51107;47.652;19.016;2023-05-20T06:28:42;100440.44;;;16.69;100.00
64683;BME280;51107;47.652;19.016;2023-05-20T06:31:10;100446.75;;;16.91;100.00
64683;BME280;51107;47.652;19.016;2023-05-20T06:33:39;100441.09;;;17.03;100.00
64683;BME280;51107;47.652;19.016;2023-05-20T06:36:08;100444.34;;;17.05;100.00
64683;BME280;51107;47.652;19.016;2023-05-20T06:38:36;100445.84;;;17.22;98.79
64683;BME280;51107;47.652;19.016;2023-05-20T06:41:05;100437.06;;;17.30;96.02
64683;BME280;51107;47.652;19.016;2023-05-20T06:43:33;100444.53;;;17.41;93.48
64683;BME280;51107;47.652;19.016;2023-05-20T06:46:02;100443.22;;;17.60;92.22
64683;BME280;51107;47.652;19.016;2023-05-20T06:48:31;100432.50;;;17.77;92.92
64683;BME280;51107;47.652;19.016;2023-05-20T06:50:59;100430.97;;;17.82;90.46
64683;BME280;51107;47.652;19.016;2023-05-20T06:53:31;100431.41;;;17.86;90.61
64683;BME280;51107;47.652;19.016;2023-05-20T06:55:59;100429.69;;;17.93;94.11
64683;BME280;51107;47.652;19.016;2023-05-20T06:58:28;100426.63;;;18.05;91.71
64683;BME280;51107;47.652;19.016;2023-05-20T07:00:57;100426.50;;;18.28;90.48
64683;BME280;51107;47.652;19.016;2023-05-20T07:03:26;100427.19;;;18.37;89.54
64683;BME280;51107;47.652;19.016;2023-05-20T07:05:55;100423.50;;;18.53;84.78
64683;BME280;51107;47.652;19.016;2023-05-20T07:08:24;100419.63;;;18.70;88.65
64683;BME280;51107;47.652;19.016;2023-05-20T07:10:54;100434.84;;;18.90;84.18
64683;BME280;51107;47.652;19.016;2023-05-20T07:13:24;100417.03;;;19.20;83.43
64683;BME280;51107;47.652;19.016;2023-05-20T07:15:53;100414.88;;;19.59;86.27
64683;BME280;51107;47.652;19.016;2023-05-20T07:18:21;100421.84;;;19.73;79.90
64683;BME280;51107;47.652;19.016;2023-05-20T07:20:51;100414.25;;;19.85;79.95
64683;BME280;51107;47.652;19.016;2023-05-20T07:23:22;100410.88;;;20.05;81.94
64683;BME280;51107;47.652;19.016;2023-05-20T07:25:52;100410.37;;;20.43;81.92
64683;BME280;51107;47.652;19.016;2023-05-20T07:28:20;100405.66;;;20.38;77.74
64683;BME280;51107;47.652;19.016;2023-05-20T07:30:49;100408.78;;;20.62;74.46
64683;BME280;51107;47.652;19.016;2023-05-20T07:33:18;100409.44;;;20.97;77.52
64683;BME280;51107;47.652;19.016;2023-05-20T07:35:47;100399.87;;;21.10;73.99
64683;BME280;51107;47.652;19.016;2023-05-20T07:38:15;100409.25;;;21.19;76.34
64683;BME280;51107;47.652;19.016;2023-05-20T07:40:45;100403.09;;;21.59;74.00
64683;BME280;51107;47.652;19.016;2023-05-20T07:43:13;100405.75;;;21.65;73.11
64683;BME280;51107;47.652;19.016;2023-05-20T07:45:42;100405.25;;;21.88;72.14
64683;BME280;51107;47.652;19.016;2023-05-20T07:48:11;100414.25;;;22.33;69.88
64683;BME280;51107;47.652;19.016;2023-05-20T07:50:40;100419.84;;;22.18;62.92
64683;BME280;51107;47.652;19.016;2023-05-20T07:53:08;100408.72;;;22.73;70.73
64683;BME280;51107;47.652;19.016;2023-05-20T07:55:38;100415.06;;;22.97;65.78
64683;BME280;51107;47.652;19.016;2023-05-20T07:58:06;100419.94;;;22.75;59.06
64683;BME280;51107;47.652;19.016;2023-05-20T08:00:35;100424.94;;;23.15;62.92
64683;BME280;51107;47.652;19.016;2023-05-20T08:03:04;100413.81;;;23.25;63.21
64683;BME280;51107;47.652;19.016;2023-05-20T08:05:36;100414.88;;;23.24;61.94
64683;BME280;51107;47.652;19.016;2023-05-20T08:08:05;100411.09;;;23.13;60.28
64683;BME280;51107;47.652;19.016;2023-05-20T08:10:39;100404.56;;;23.53;58.65
64683;BME280;51107;47.652;19.016;2023-05-20T08:13:07;100408.25;;;23.70;63.49
64683;BME280;51107;47.652;19.016;2023-05-20T08:15:36;100398.00;;;23.92;58.12
64683;BME280;51107;47.652;19.016;2023-05-20T08:18:04;100397.91;;;23.99;60.58
64683;BME280;51107;47.652;19.016;2023-05-20T08:20:33;100394.72;;;24.09;57.06
64683;BME280;51107;47.652;19.016;2023-05-20T08:23:01;100391.84;;;24.11;61.76
64683;BME280;51107;47.652;19.016;2023-05-20T08:25:29;100387.25;;;24.18;57.45
64683;BME280;51107;47.652;19.016;2023-05-20T08:28:01;100390.16;;;24.28;58.31
64683;BME280;51107;47.652;19.016;2023-05-20T08:30:32;100386.84;;;24.63;62.69
64683;BME280;51107;47.652;19.016;2023-05-20T08:33:01;100389.56;;;24.56;57.65
64683;BME280;51107;47.652;19.016;2023-05-20T08:35:30;100393.00;;;24.75;60.09
64683;BME280;51107;47.652;19.016;2023-05-20T08:37:58;100382.56;;;24.74;57.22
64683;BME280;51107;47.652;19.016;2023-05-20T08:40:28;100369.59;;;25.01;61.23
64683;BME280;51107;47.652;19.016;2023-05-20T08:42:57;100372.50;;;25.00;57.11
64683;BME280;51107;47.652;19.016;2023-05-20T08:45:29;100380.25;;;24.89;58.50
64683;BME280;51107;47.652;19.016;2023-05-20T08:47:59;100376.88;;;25.18;57.93
64683;BME280;51107;47.652;19.016;2023-05-20T08:50:28;100375.72;;;25.14;54.53
64683;BME280;51107;47.652;19.016;2023-05-20T08:52:56;100370.75;;;25.17;59.16
64683;BME280;51107;47.652;19.016;2023-05-20T08:55:29;100369.03;;;24.99;53.32
64683;BME280;51107;47.652;19.016;2023-05-20T08:58:00;100365.53;;;25.10;58.15
64683;BME280;51107;47.652;19.016;2023-05-20T09:00:28;100362.19;;;25.39;56.90
64683;BME280;51107;47.652;19.016;2023-05-20T09:02:58;100356.44;;;25.71;57.92
64683;BME280;51107;47.652;19.016;2023-05-20T09:05:28;100352.78;;;25.89;57.37
64683;BME280;51107;47.652;19.016;2023-05-20T09:08:06;100357.53;;;25.87;57.90
64683;BME280;51107;47.652;19.016;2023-05-20T09:10:37;100359.28;;;25.81;56.05
64683;BME280;51107;47.652;19.016;2023-05-20T09:13:07;100351.44;;;26.03;55.07
64683;BME280;51107;47.652;19.016;2023-05-20T09:15:36;100353.53;;;26.01;56.66
64683;BME280;51107;47.652;19.016;2023-05-20T09:18:06;100343.34;;;25.98;54.71
64683;BME280;51107;47.652;19.016;2023-05-20T09:20:36;100345.03;;;25.75;55.42
64683;BME280;51107;47.652;19.016;2023-05-20T09:23:07;100346.34;;;26.02;56.14
64683;BME280;51107;47.652;19.016;2023-05-20T09:25:36;100342.84;;;26.13;54.16
64683;BME280;51107;47.652;19.016;2023-05-20T09:28:08;100349.63;;;26.21;55.19
64683;BME280;51107;47.652;19.016;2023-05-20T09:30:39;100349.63;;;26.21;54.69
64683;BME280;51107;47.652;19.016;2023-05-20T09:33:07;100352.06;;;26.22;52.32
64683;BME280;51107;47.652;19.016;2023-05-20T09:35:36;100350.53;;;26.26;54.27
64683;BME280;51107;47.652;19.016;2023-05-20T09:38:05;100344.72;;;26.47;53.98
64683;BME280;51107;47.652;19.016;2023-05-20T09:40:37;100340.88;;;26.08;50.52
64683;BME280;51107;47.652;19.016;2023-05-20T09:43:07;100331.69;;;26.16;53.98
64683;BME280;51107;47.652;19.016;2023-05-20T09:45:38;100327.22;;;26.22;53.49
64683;BME280;51107;47.652;19.016;2023-05-20T09:48:07;100327.38;;;26.32;56.30
64683;BME280;51107;47.652;19.016;2023-05-20T09:50:38;100329.16;;;26.26;54.15
64683;BME280;51107;47.652;19.016;2023-05-20T09:53:07;100316.97;;;26.48;51.24
64683;BME280;51107;47.652;19.016;2023-05-20T09:55:37;100322.13;;;26.37;55.57
64683;BME280;51107;47.652;19.016;2023-05-20T09:58:05;100309.66;;;26.26;53.23
64683;BME280;51107;47.652;19.016;2023-05-20T10:00:35;100311.59;;;26.14;53.61
64683;BME280;51107;47.652;19.016;2023-05-20T10:03:04;100307.34;;;26.30;53.99
64683;BME280;51107;47.652;19.016;2023-05-20T10:05:36;100311.69;;;26.36;55.71
64683;BME280;51107;47.652;19.016;2023-05-20T10:14:27;100300.44;;;26.17;51.56
64683;BME280;51107;47.652;19.016;2023-05-20T10:17:12;100294.00;;;26.30;51.87
64683;BME280;51107;47.652;19.016;2023-05-20T10:19:44;100285.00;;;25.90;49.60
64683;BME280;51107;47.652;19.016;2023-05-20T10:22:13;100284.03;;;25.96;52.09
64683;BME280;51107;47.652;19.016;2023-05-20T10:24:42;100285.28;;;25.76;48.11
64683;BME280;51107;47.652;19.016;2023-05-20T10:27:13;100291.25;;;25.96;47.54
64683;BME280;51107;47.652;19.016;2023-05-20T10:29:53;100280.94;;;25.87;53.05
64683;BME280;51107;47.652;19.016;2023-05-20T10:32:30;100277.44;;;25.87;49.81
64683;BME280;51107;47.652;19.016;2023-05-20T10:35:04;100283.66;;;25.75;49.71
64683;BME280;51107;47.652;19.016;2023-05-20T10:37:43;100280.38;;;25.56;51.19
64683;BME280;51107;47.652;19.016;2023-05-20T10:40:20;100270.72;;;25.67;49.60
64683;BME280;51107;47.652;19.016;2023-05-20T10:42:49;100256.66;;;25.72;51.29
64683;BME280;51107;47.652;19.016;2023-05-20T10:45:25;100262.81;;;25.43;49.34
64683;BME280;51107;47.652;19.016;2023-05-20T10:47:55;100257.22;;;25.45;49.19
64683;BME280;51107;47.652;19.016;2023-05-20T10:50:36;100260.13;;;25.43;50.10
64683;BME280;51107;47.652;19.016;2023-05-20T10:53:11;100266.19;;;25.39;51.54
64683;BME280;51107;47.652;19.016;2023-05-20T10:55:59;100256.22;;;25.34;53.45
64683;BME280;51107;47.652;19.016;2023-05-20T10:58:36;100250.97;;;25.27;53.28
64683;BME280;51107;47.652;19.016;2023-05-20T11:01:04;100250.97;;;25.27;52.11
64683;BME280;51107;47.652;19.016;2023-05-20T11:03:34;100250.28;;;25.32;53.12
64683;BME280;51107;47.652;19.016;2023-05-20T11:06:10;100245.94;;;25.02;50.77
64683;BME280;51107;47.652;19.016;2023-05-20T11:08:39;100240.75;;;24.96;52.68
64683;BME280;51107;47.652;19.016;2023-05-20T11:11:09;100239.72;;;24.97;53.94
64683;BME280;51107;47.652;19.016;2023-05-20T11:13:37;100238.56;;;24.81;52.83
64683;BME280;51107;47.652;19.016;2023-05-20T11:16:07;100232.91;;;24.65;51.05
64683;BME280;51107;47.652;19.016;2023-05-20T11:18:35;100237.97;;;24.55;48.46
64683;BME280;51107;47.652;19.016;2023-05-20T11:21:04;100243.56;;;24.65;50.58
64683;BME280;51107;47.652;19.016;2023-05-20T11:23:33;100239.03;;;24.54;50.87
64683;BME280;51107;47.652;19.016;2023-05-20T11:26:01;100230.22;;;24.41;47.22
64683;BME280;51107;47.652;19.016;2023-05-20T11:28:32;100238.19;;;24.30;50.75
64683;BME280;51107;47.652;19.016;2023-05-20T11:31:03;100227.31;;;24.43;49.55
64683;BME280;51107;47.652;19.016;2023-05-20T11:33:31;100226.16;;;24.51;50.50
64683;BME280;51107;47.652;19.016;2023-05-20T11:36:01;100235.19;;;24.50;49.73
64683;BME280;51107;47.652;19.016;2023-05-20T11:38:32;100225.09;;;24.52;48.13
64683;BME280;51107;47.652;19.016;2023-05-20T11:41:00;100225.16;;;24.64;49.90
64683;BME280;51107;47.652;19.016;2023-05-20T11:43:28;100226.25;;;24.56;52.08
64683;BME280;51107;47.652;19.016;2023-05-20T11:45:57;100223.63;;;24.44;51.67
64683;BME280;51107;47.652;19.016;2023-05-20T11:48:28;100222.44;;;24.28;54.11
64683;BME280;51107;47.652;19.016;2023-05-20T11:50:57;100223.94;;;24.12;50.22
64683;BME280;51107;47.652;19.016;2023-05-20T11:53:28;100224.19;;;24.34;51.59
64683;BME280;51107;47.652;19.016;2023-05-20T11:56:00;100221.50;;;24.22;51.36
64683;BME280;51107;47.652;19.016;2023-05-20T11:58:30;100225.56;;;24.25;52.65
64683;BME280;51107;47.652;19.016;2023-05-20T12:00:58;100208.12;;;24.41;51.55
64683;BME280;51107;47.652;19.016;2023-05-20T12:03:47;100216.09;;;24.29;51.46
64683;BME280;51107;47.652;19.016;2023-05-20T12:06:16;100211.34;;;24.31;52.71
64683;BME280;51107;47.652;19.016;2023-05-20T12:08:45;100207.97;;;24.24;51.62
64683;BME280;51107;47.652;19.016;2023-05-20T12:11:14;100215.28;;;24.29;49.97
64683;BME280;51107;47.652;19.016;2023-05-20T12:13:43;100213.63;;;24.16;51.71
64683;BME280;51107;47.652;19.016;2023-05-20T12:16:11;100211.06;;;24.09;51.92
64683;BME280;51107;47.652;19.016;2023-05-20T12:18:40;100210.16;;;24.03;50.04
64683;BME280;51107;47.652;19.016;2023-05-20T12:21:09;100211.91;;;24.10;52.88
64683;BME280;51107;47.652;19.016;2023-05-20T12:23:37;100208.31;;;24.16;51.01
64683;BME280;51107;47.652;19.016;2023-05-20T12:26:05;100204.97;;;24.20;48.44
64683;BME280;51107;47.652;19.016;2023-05-20T12:28:34;100202.06;;;24.10;48.53
64683;BME280;51107;47.652;19.016;2023-05-20T12:31:03;100197.91;;;24.14;46.69
64683;BME280;51107;47.652;19.016;2023-05-20T12:33:32;100200.56;;;24.14;52.79
64683;BME280;51107;47.652;19.016;2023-05-20T12:36:00;100194.91;;;24.11;49.79
64683;BME280;51107;47.652;19.016;2023-05-20T12:38:28;100191.75;;;24.02;52.31
64683;BME280;51107;47.652;19.016;2023-05-20T12:40:57;100197.94;;;23.84;54.96
64683;BME280;51107;47.652;19.016;2023-05-20T12:43:25;100192.84;;;23.82;54.90
64683;BME280;51107;47.652;19.016;2023-05-20T12:45:54;100189.09;;;23.90;54.48
64683;BME280;51107;47.652;19.016;2023-05-20T12:48:23;100196.06;;;23.84;52.70
64683;BME280;51107;47.652;19.016;2023-05-20T12:50:52;100189.50;;;23.87;52.22
64683;BME280;51107;47.652;19.016;2023-05-20T12:53:20;100182.47;;;23.92;52.33